sensor_id;sensor_type;location;lat;lon;timestamp;pressure;altitude;pressure_sealevel;temperature;humidity
20043;BME280;10182;52.896;6.496;2023-05-18T00:02:41;102785.66;;;6.39;100.00
20043;BME280;10182;52.896;6.496;2023-05-18T00:07:43;102794.44;;;6.41;100.00
20043;BME280;10182;52.896;6.496;2023-05-18T00:12:47;102789.16;;;6.41;100.00
20043;BME280;10182;52.896;6.496;2023-05-18T00:17:48;102795.25;;;6.23;100.00
20043;BME280;10182;52.896;6.496;2023-05-18T00:22:52;102791.75;;;6.29;100.00
20043;BME280;10182;52.896;6.496;2023-05-18T00:27:55;102793.53;;;6.28;100.00
20043;BME280;10182;52.896;6.496;2023-05-18T00:32:57;102801.41;;;6.30;100.00
20043;BME280;10182;52.896;6.496;2023-05-18T00:37:59;102796.16;;;6.30;100.00
20043;BME280;10182;52.896;6.496;2023-05-18T00:43:02;102799.63;;;6.21;100.00
20043;BME280;10182;52.896;6.496;2023-05-18T00:48:04;102795.19;;;6.14;100.00
20043;BME280;10182;52.896;6.496;2023-05-18T00:53:05;102798.69;;;6.08;100.00
20043;BME280;10182;52.896;6.496;2023-05-18T00:58:11;102795.19;;;6.04;100.00
20043;BME280;10182;52.896;6.496;2023-05-18T01:03:13;102793.31;;;5.91;100.00
20043;BME280;10182;52.896;6.496;2023-05-18T01:08:15;102798.56;;;5.89;100.00
20043;BME280;10182;52.896;6.496;2023-05-18T01:13:24;102799.44;;;5.93;100.00
20043;BME280;10182;52.896;6.496;2023-05-18T01:18:33;102808.25;;;5.97;100.00
20043;BME280;10182;52.896;6.496;2023-05-18T01:23:50;102804.81;;;6.02;100.00
20043;BME280;10182;52.896;6.496;2023-05-18T01:28:57;102804.84;;;6.07;100.00
20043;BME280;10182;52.896;6.496;2023-05-18T01:34:02;102805.72;;;6.10;100.00
20043;BME280;10182;52.896;6.496;2023-05-18T01:39:04;102797.81;;;6.12;100.00
20043;BME280;10182;52.896;6.496;2023-05-18T01:44:11;102800.50;;;6.15;100.00
20043;BME280;10182;52.896;6.496;2023-05-18T01:49:21;102809.25;;;6.14;100.00
20043;BME280;10182;52.896;6.496;2023-05-18T01:54:29;102809.22;;;6.09;100.00
20043;BME280;10182;52.896;6.496;2023-05-18T01:59:34;102813.59;;;6.09;100.00
20043;BME280;10182;52.896;6.496;2023-05-18T02:04:37;102813.66;;;6.17;100.00
20043;BME280;10182;52.896;6.496;2023-05-18T02:09:38;102812.84;;;6.30;100.00
20043;BME280;10182;52.896;6.496;2023-05-18T02:14:42;102810.25;;;6.42;100.00
20043;BME280;10182;52.896;6.496;2023-05-18T02:19:43;102811.13;;;6.48;100.00
20043;BME280;10182;52.896;6.496;2023-05-18T02:24:45;102811.13;;;6.44;100.00
20043;BME280;10182;52.896;6.496;2023-05-18T02:29:48;102810.25;;;6.49;100.00
20043;BME280;10182;52.896;6.496;2023-05-18T02:34:51;102813.81;;;6.55;100.00
20043;BME280;10182;52.896;6.496;2023-05-18T02:39:53;102811.16;;;6.54;100.00
20043;BME280;10182;52.896;6.496;2023-05-18T02:44:56;102809.41;;;6.47;100.00
20043;BME280;10182;52.896;6.496;2023-05-18T02:49:57;102811.16;;;6.54;100.00
20043;BME280;10182;52.896;6.496;2023-05-18T02:54:59;102815.56;;;6.63;100.00
20043;BME280;10182;52.896;6.496;2023-05-18T03:00:03;102809.44;;;6.68;100.00
20043;BME280;10182;52.896;6.496;2023-05-18T03:05:09;102806.81;;;6.74;100.00
20043;BME280;10182;52.896;6.496;2023-05-18T03:10:11;102808.56;;;6.69;100.00
20043;BME280;10182;52.896;6.496;2023-05-18T03:15:14;102809.47;;;6.74;100.00
20043;BME280;10182;52.896;6.496;2023-05-18T03:20:16;102806.84;;;6.70;100.00
20043;BME280;10182;52.896;6.496;2023-05-18T03:25:19;102817.38;;;6.73;100.00
20043;BME280;10182;52.896;6.496;2023-05-18T03:30:23;102813.84;;;6.66;100.00
20043;BME280;10182;52.896;6.496;2023-05-18T03:35:24;102804.13;;;6.53;100.00
20043;BME280;10182;52.896;6.496;2023-05-18T03:40:26;102812.03;;;6.56;100.00
20043;BME280;10182;52.896;6.496;2023-05-18T03:45:30;102810.34;;;6.66;100.00
20043;BME280;10182;52.896;6.496;2023-05-18T03:50:31;102814.72;;;6.79;100.00
20043;BME280;10182;52.896;6.496;2023-05-18T03:55:33;102815.59;;;6.72;100.00
20043;BME280;10182;52.896;6.496;2023-05-18T04:00:36;102819.09;;;6.63;100.00
20043;BME280;10182;52.896;6.496;2023-05-18T04:05:39;102819.09;;;6.66;100.00
20043;BME280;10182;52.896;6.496;2023-05-18T04:10:43;102822.63;;;6.73;100.00
20043;BME280;10182;52.896;6.496;2023-05-18T04:15:46;102822.63;;;6.73;100.00
20043;BME280;10182;52.896;6.496;2023-05-18T04:20:48;102833.19;;;6.87;100.00
20043;BME280;10182;52.896;6.496;2023-05-18T04:25:50;102838.47;;;6.88;100.00
20043;BME280;10182;52.896;6.496;2023-05-18T04:30:53;102838.50;;;6.93;100.00
20043;BME280;10182;52.896;6.496;2023-05-18T04:35:55;102836.72;;;7.00;100.00
20043;BME280;10182;52.896;6.496;2023-05-18T04:40:58;102843.78;;;7.05;100.00
20043;BME280;10182;52.896;6.496;2023-05-18T04:46:05;102852.56;;;7.17;100.00
20043;BME280;10182;52.896;6.496;2023-05-18T04:51:07;102859.63;;;7.28;100.00
20043;BME280;10182;52.896;6.496;2023-05-18T04:56:09;102854.34;;;7.24;100.00
20043;BME280;10182;52.896;6.496;2023-05-18T05:01:14;102865.78;;;7.38;100.00
20043;BME280;10182;52.896;6.496;2023-05-18T05:06:16;102861.38;;;7.47;100.00
20043;BME280;10182;52.896;6.496;2023-05-18T05:11:18;102866.66;;;7.59;100.00
20043;BME280;10182;52.896;6.496;2023-05-18T05:16:22;102868.41;;;7.69;100.00
20043;BME280;10182;52.896;6.496;2023-05-18T05:21:24;102867.53;;;7.78;100.00
20043;BME280;10182;52.896;6.496;2023-05-18T05:26:25;102868.38;;;7.80;100.00
20043;BME280;10182;52.896;6.496;2023-05-18T05:31:28;102875.41;;;7.87;100.00
20043;BME280;10182;52.896;6.496;2023-05-18T05:36:30;102871.88;;;7.97;100.00
20043;BME280;10182;52.896;6.496;2023-05-18T05:41:33;102878.91;;;8.09;100.00
20043;BME280;10182;52.896;6.496;2023-05-18T05:46:36;102870.97;;;8.12;100.00
20043;BME280;10182;52.896;6.496;2023-05-18T05:51:37;102876.22;;;8.22;100.00
20043;BME280;10182;52.896;6.496;2023-05-18T05:56:39;102875.31;;;8.32;100.00
20043;BME280;10182;52.896;6.496;2023-05-18T06:01:42;102888.53;;;8.35;100.00
20043;BME280;10182;52.896;6.496;2023-05-18T06:06:46;102882.31;;;8.49;100.00
20043;BME280;10182;52.896;6.496;2023-05-18T06:11:48;102877.03;;;8.55;100.00
20043;BME280;10182;52.896;6.496;2023-05-18T06:16:51;102877.88;;;8.63;100.00
20043;BME280;10182;52.896;6.496;2023-05-18T06:21:52;102884.94;;;8.58;100.00
20043;BME280;10182;52.896;6.496;2023-05-18T06:26:54;102896.31;;;8.74;100.00
20043;BME280;10182;52.896;6.496;2023-05-18T06:31:57;102891.06;;;8.71;100.00
20043;BME280;10182;52.896;6.496;2023-05-18T06:36:59;102890.13;;;8.79;100.00
20043;BME280;10182;52.896;6.496;2023-05-18T06:42:00;102892.69;;;8.92;100.00
20043;BME280;10182;52.896;6.496;2023-05-18T06:47:04;102890.81;;;9.11;100.00
20043;BME280;10182;52.896;6.496;2023-05-18T06:52:06;102890.84;;;9.05;100.00
20043;BME280;10182;52.896;6.496;2023-05-18T06:57:09;102894.25;;;9.24;100.00
20043;BME280;10182;52.896;6.496;2023-05-18T07:02:12;102895.22;;;9.15;100.00
20043;BME280;10182;52.896;6.496;2023-05-18T07:07:14;102908.31;;;9.32;100.00
20043;BME280;10182;52.896;6.496;2023-05-18T07:12:16;102903.09;;;9.24;100.00
20043;BME280;10182;52.896;6.496;2023-05-18T07:17:19;102909.28;;;9.20;100.00
20043;BME280;10182;52.896;6.496;2023-05-18T07:22:20;102898.72;;;9.20;100.00
20043;BME280;10182;52.896;6.496;2023-05-18T07:27:22;102899.41;;;9.44;100.00
20043;BME280;10182;52.896;6.496;2023-05-18T07:32:25;102903.81;;;9.45;100.00
20043;BME280;10182;52.896;6.496;2023-05-18T07:37:27;102916.16;;;9.46;100.00
20043;BME280;10182;52.896;6.496;2023-05-18T07:42:28;102921.53;;;9.32;100.00
20043;BME280;10182;52.896;6.496;2023-05-18T07:47:32;102912.69;;;9.39;100.00
20043;BME280;10182;52.896;6.496;2023-05-18T07:52:34;102916.78;;;9.76;100.00
20043;BME280;10182;52.896;6.496;2023-05-18T07:57:35;102915.78;;;9.89;100.00
20043;BME280;10182;52.896;6.496;2023-05-18T08:02:39;102915.38;;;10.31;100.00
20043;BME280;10182;52.896;6.496;2023-05-18T08:07:41;102915.41;;;10.29;100.00
20043;BME280;10182;52.896;6.496;2023-05-18T08:12:42;102916.25;;;10.36;100.00
20043;BME280;10182;52.896;6.496;2023-05-18T08:17:45;102908.28;;;10.35;100.00
20043;BME280;10182;52.896;6.496;2023-05-18T08:22:47;102915.91;;;10.64;100.00
20043;BME280;10182;52.896;6.496;2023-05-18T08:27:49;102906.84;;;10.82;100.00
20043;BME280;10182;52.896;6.496;2023-05-18T08:32:52;102905.53;;;11.12;100.00
20043;BME280;10182;52.896;6.496;2023-05-18T08:37:54;102901.06;;;11.16;100.00
20043;BME280;10182;52.896;6.496;2023-05-18T08:43:02;102898.50;;;11.08;100.00
20043;BME280;10182;52.896;6.496;2023-05-18T08:48:10;102898.00;;;11.42;100.00
20043;BME280;10182;52.896;6.496;2023-05-18T08:53:12;102889.94;;;10.91;100.00
20043;BME280;10182;52.896;6.496;2023-05-18T08:58:16;102893.75;;;11.32;100.00
20043;BME280;10182;52.896;6.496;2023-05-18T09:03:21;102878.78;;;11.79;100.00
20043;BME280;10182;52.896;6.496;2023-05-18T09:08:23;102883.78;;;11.99;97.48
20043;BME280;10182;52.896;6.496;2023-05-18T09:13:26;102890.28;;;11.81;98.49
20043;BME280;10182;52.896;6.496;2023-05-18T09:18:29;102890.16;;;11.89;95.66
20043;BME280;10182;52.896;6.496;2023-05-18T09:23:31;102880.16;;;11.50;93.78
20043;BME280;10182;52.896;6.496;2023-05-18T09:28:35;102889.00;;;12.04;97.42
20043;BME280;10182;52.896;6.496;2023-05-18T09:33:39;102878.84;;;12.26;91.53
20043;BME280;10182;52.896;6.496;2023-05-18T09:38:41;102864.69;;;12.24;90.31
20043;BME280;10182;52.896;6.496;2023-05-18T09:43:47;102858.50;;;12.25;95.46
20043;BME280;10182;52.896;6.496;2023-05-18T09:48:52;102861.34;;;12.99;85.50
20043;BME280;10182;52.896;6.496;2023-05-18T09:53:55;102856.34;;;12.85;80.20
20043;BME280;10182;52.896;6.496;2023-05-18T09:58:58;102855.69;;;12.33;88.94
20043;BME280;10182;52.896;6.496;2023-05-18T10:04:09;102853.16;;;12.27;100.00
20043;BME280;10182;52.896;6.496;2023-05-18T10:09:14;102842.97;;;12.04;93.25
20043;BME280;10182;52.896;6.496;2023-05-18T10:14:16;102848.91;;;12.16;100.00
20043;BME280;10182;52.896;6.496;2023-05-18T10:19:19;102839.69;;;11.89;100.00
20043;BME280;10182;52.896;6.496;2023-05-18T10:24:22;102836.41;;;12.22;93.44
20043;BME280;10182;52.896;6.496;2023-05-18T10:29:24;102833.69;;;12.67;94.57
20043;BME280;10182;52.896;6.496;2023-05-18T10:34:27;102834.72;;;12.60;91.48
20043;BME280;10182;52.896;6.496;2023-05-18T10:39:30;102833.28;;;12.85;93.73
20043;BME280;10182;52.896;6.496;2023-05-18T10:44:34;102821.38;;;13.38;90.31
20043;BME280;10182;52.896;6.496;2023-05-18T10:49:39;102834.63;;;13.41;84.64
20043;BME280;10182;52.896;6.496;2023-05-18T10:54:41;102829.84;;;13.18;87.21
20043;BME280;10182;52.896;6.496;2023-05-18T10:59:43;102830.63;;;13.23;90.79
20043;BME280;10182;52.896;6.496;2023-05-18T11:04:48;102826.00;;;13.30;79.70
20043;BME280;10182;52.896;6.496;2023-05-18T11:09:50;102817.84;;;13.37;93.21
20043;BME280;10182;52.896;6.496;2023-05-18T11:14:53;102830.44;;;13.29;89.96
20043;BME280;10182;52.896;6.496;2023-05-18T11:20:15;102817.06;;;13.32;86.38
20043;BME280;10182;52.896;6.496;2023-05-18T11:25:41;102822.38;;;13.35;94.78
20043;BME280;10182;52.896;6.496;2023-05-18T11:30:50;102817.75;;;13.04;99.19
20043;BME280;10182;52.896;6.496;2023-05-18T11:36:04;102818.56;;;13.08;96.16
20043;BME280;10182;52.896;6.496;2023-05-18T11:41:07;102814.53;;;13.28;94.74
20043;BME280;10182;52.896;6.496;2023-05-18T11:46:26;102809.47;;;13.17;80.02
20043;BME280;10182;52.896;6.496;2023-05-18T11:51:31;102795.03;;;13.27;89.63
20043;BME280;10182;52.896;6.496;2023-05-18T11:56:33;102786.72;;;13.41;96.35
20043;BME280;10182;52.896;6.496;2023-05-18T12:01:35;102779.34;;;13.51;92.08
20043;BME280;10182;52.896;6.496;2023-05-18T12:06:38;102786.13;;;13.96;90.05
20043;BME280;10182;52.896;6.496;2023-05-18T12:11:40;102776.84;;;14.09;85.42
20043;BME280;10182;52.896;6.496;2023-05-18T12:16:42;102779.28;;;14.17;85.07
20043;BME280;10182;52.896;6.496;2023-05-18T12:21:45;102770.78;;;14.04;77.63
20043;BME280;10182;52.896;6.496;2023-05-18T12:26:47;102758.91;;;14.44;84.88
20043;BME280;10182;52.896;6.496;2023-05-18T12:31:49;102764.19;;;14.46;80.86
20043;BME280;10182;52.896;6.496;2023-05-18T12:36:52;102760.13;;;14.62;74.95
20043;BME280;10182;52.896;6.496;2023-05-18T12:42:07;102757.16;;;14.15;82.31
20043;BME280;10182;52.896;6.496;2023-05-18T12:47:10;102758.53;;;14.56;83.31
20043;BME280;10182;52.896;6.496;2023-05-18T12:52:14;102750.63;;;14.53;78.05
20043;BME280;10182;52.896;6.496;2023-05-18T12:57:16;102750.91;;;14.74;83.91
20043;BME280;10182;52.896;6.496;2023-05-18T13:02:29;102748.00;;;14.24;72.54
20043;BME280;10182;52.896;6.496;2023-05-18T13:07:34;102747.03;;;14.26;78.38
20043;BME280;10182;52.896;6.496;2023-05-18T13:12:43;102739.34;;;14.45;73.81
20043;BME280;10182;52.896;6.496;2023-05-18T13:17:55;102732.53;;;14.65;68.02
20043;BME280;10182;52.896;6.496;2023-05-18T13:23:01;102732.50;;;14.93;71.10
20043;BME280;10182;52.896;6.496;2023-05-18T13:28:05;102728.06;;;15.19;68.71
20043;BME280;10182;52.896;6.496;2023-05-18T13:33:09;102723.25;;;15.54;68.32
20043;BME280;10182;52.896;6.496;2023-05-18T13:38:13;102725.91;;;15.03;69.07
20043;BME280;10182;52.896;6.496;2023-05-18T13:43:15;102720.13;;;15.17;71.94
20043;BME280;10182;52.896;6.496;2023-05-18T13:48:16;102718.91;;;15.26;67.29
20043;BME280;10182;52.896;6.496;2023-05-18T13:53:19;102711.59;;;15.06;75.25
20043;BME280;10182;52.896;6.496;2023-05-18T13:58:21;102705.34;;;15.32;76.28
20043;BME280;10182;52.896;6.496;2023-05-18T14:03:23;102701.91;;;15.29;80.66
20043;BME280;10182;52.896;6.496;2023-05-18T14:08:26;102692.00;;;15.07;77.79
20043;BME280;10182;52.896;6.496;2023-05-18T14:13:28;102700.69;;;15.63;78.06
20043;BME280;10182;52.896;6.496;2023-05-18T14:18:30;102694.75;;;15.54;84.03
20043;BME280;10182;52.896;6.496;2023-05-18T14:23:35;102695.81;;;15.00;76.06
20043;BME280;10182;52.896;6.496;2023-05-18T14:28:36;102690.59;;;15.22;77.82
20043;BME280;10182;52.896;6.496;2023-05-18T14:33:38;102687.53;;;15.33;91.18
20043;BME280;10182;52.896;6.496;2023-05-18T14:38:41;102678.88;;;15.50;78.45
20043;BME280;10182;52.896;6.496;2023-05-18T14:43:45;102681.47;;;15.53;86.21
20043;BME280;10182;52.896;6.496;2023-05-18T14:48:47;102679.91;;;15.22;81.91
20043;BME280;10182;52.896;6.496;2023-05-18T14:53:50;102692.63;;;15.39;96.43
20043;BME280;10182;52.896;6.496;2023-05-18T14:58:52;102686.47;;;15.12;100.00
20043;BME280;10182;52.896;6.496;2023-05-18T15:03:53;102684.47;;;15.18;98.65
20043;BME280;10182;52.896;6.496;2023-05-18T15:08:56;102698.03;;;15.12;100.00
20043;BME280;10182;52.896;6.496;2023-05-18T15:13:58;102678.22;;;15.45;96.76
20043;BME280;10182;52.896;6.496;2023-05-18T15:19:00;102669.97;;;15.51;96.07
20043;BME280;10182;52.896;6.496;2023-05-18T15:24:05;102677.63;;;15.36;100.00
20043;BME280;10182;52.896;6.496;2023-05-18T15:29:07;102681.94;;;15.39;100.00
20043;BME280;10182;52.896;6.496;2023-05-18T15:34:09;102673.69;;;14.96;100.00
20043;BME280;10182;52.896;6.496;2023-05-18T15:39:12;102673.31;;;14.80;100.00
20043;BME280;10182;52.896;6.496;2023-05-18T15:44:13;102677.59;;;14.86;100.00
20043;BME280;10182;52.896;6.496;2023-05-18T15:49:15;102671.25;;;14.62;100.00
20043;BME280;10182;52.896;6.496;2023-05-18T15:54:19;102684.75;;;14.57;100.00
20043;BME280;10182;52.896;6.496;2023-05-18T15:59:21;102674.34;;;14.49;100.00
20043;BME280;10182;52.896;6.496;2023-05-18T16:04:22;102674.75;;;14.64;100.00
20043;BME280;10182;52.896;6.496;2023-05-18T16:09:25;102674.34;;;14.49;100.00
20043;BME280;10182;52.896;6.496;2023-05-18T16:14:27;102669.84;;;14.50;100.00
20043;BME280;10182;52.896;6.496;2023-05-18T16:19:29;102667.22;;;14.21;100.00
20043;BME280;10182;52.896;6.496;2023-05-18T16:24:33;102669.63;;;14.29;100.00
20043;BME280;10182;52.896;6.496;2023-05-18T16:29:35;102665.03;;;14.34;100.00
20043;BME280;10182;52.896;6.496;2023-05-18T16:34:37;102675.13;;;14.51;100.00
20043;BME280;10182;52.896;6.496;2023-05-18T16:39:40;102667.84;;;14.30;100.00
20043;BME280;10182;52.896;6.496;2023-05-18T16:44:41;102658.78;;;14.07;100.00
20043;BME280;10182;52.896;6.496;2023-05-18T16:49:43;102656.91;;;13.81;100.00
20043;BME280;10182;52.896;6.496;2023-05-18T16:54:47;102653.56;;;14.04;100.00
20043;BME280;10182;52.896;6.496;2023-05-18T16:59:48;102648.66;;;14.18;100.00
20043;BME280;10182;52.896;6.496;2023-05-18T17:04:50;102662.47;;;13.73;100.00
20043;BME280;10182;52.896;6.496;2023-05-18T17:09:53;102661.66;;;13.69;100.00
20043;BME280;10182;52.896;6.496;2023-05-18T17:14:55;102653.22;;;13.55;100.00
20043;BME280;10182;52.896;6.496;2023-05-18T17:19:57;102656.69;;;13.59;100.00
20043;BME280;10182;52.896;6.496;2023-05-18T17:25:00;102657.00;;;13.46;100.00
20043;BME280;10182;52.896;6.496;2023-05-18T17:30:02;102651.09;;;13.36;100.00
20043;BME280;10182;52.896;6.496;2023-05-18T17:35:04;102649.78;;;13.18;100.00
20043;BME280;10182;52.896;6.496;2023-05-18T17:40:09;102651.69;;;13.13;100.00
20043;BME280;10182;52.896;6.496;2023-05-18T17:45:11;102650.03;;;13.09;100.00
20043;BME280;10182;52.896;6.496;2023-05-18T17:50:12;102649.06;;;13.12;100.00
20043;BME280;10182;52.896;6.496;2023-05-18T17:55:16;102646.75;;;12.99;100.00
20043;BME280;10182;52.896;6.496;2023-05-18T18:00:18;102650.09;;;12.73;100.00
20043;BME280;10182;52.896;6.496;2023-05-18T18:05:20;102653.00;;;12.62;100.00
20043;BME280;10182;52.896;6.496;2023-05-18T18:10:23;102661.34;;;12.48;100.00
20043;BME280;10182;52.896;6.496;2023-05-18T18:15:26;102650.78;;;12.45;100.00
20043;BME280;10182;52.896;6.496;2023-05-18T18:20:28;102651.25;;;12.25;100.00
20043;BME280;10182;52.896;6.496;2023-05-18T18:25:36;102652.34;;;12.15;100.00
20043;BME280;10182;52.896;6.496;2023-05-18T18:30:38;102655.44;;;11.96;100.00
20043;BME280;10182;52.896;6.496;2023-05-18T18:35:39;102667.31;;;11.77;100.00
20043;BME280;10182;52.896;6.496;2023-05-18T18:40:43;102664.78;;;11.72;100.00
20043;BME280;10182;52.896;6.496;2023-05-18T18:45:45;102663.88;;;11.73;100.00
20043;BME280;10182;52.896;6.496;2023-05-18T18:50:47;102668.28;;;11.73;100.00
20043;BME280;10182;52.896;6.496;2023-05-18T18:55:50;102665.81;;;11.65;100.00
20043;BME280;10182;52.896;6.496;2023-05-18T19:00:52;102665.97;;;11.57;100.00
20043;BME280;10182;52.896;6.496;2023-05-18T19:05:54;102675.75;;;11.54;100.00
20043;BME280;10182;52.896;6.496;2023-05-18T19:10:57;102681.34;;;11.40;100.00
20043;BME280;10182;52.896;6.496;2023-05-18T19:15:59;102680.72;;;11.27;100.00
20043;BME280;10182;52.896;6.496;2023-05-18T19:21:00;102686.94;;;11.24;100.00
20043;BME280;10182;52.896;6.496;2023-05-18T19:26:04;102700.03;;;10.83;100.00
20043;BME280;10182;52.896;6.496;2023-05-18T19:31:06;102702.22;;;10.58;100.00
20043;BME280;10182;52.896;6.496;2023-05-18T19:36:09;102701.63;;;10.39;100.00
20043;BME280;10182;52.896;6.496;2023-05-18T19:41:14;102709.66;;;10.30;100.00
20043;BME280;10182;52.896;6.496;2023-05-18T19:46:16;102712.41;;;10.24;100.00
20043;BME280;10182;52.896;6.496;2023-05-18T19:51:17;102714.25;;;10.15;100.00
20043;BME280;10182;52.896;6.496;2023-05-18T19:56:21;102716.19;;;10.03;100.00
20043;BME280;10182;52.896;6.496;2023-05-18T20:01:23;102716.25;;;9.99;100.00
20043;BME280;10182;52.896;6.496;2023-05-18T20:06:24;102733.97;;;9.93;100.00
20043;BME280;10182;52.896;6.496;2023-05-18T20:11:28;102728.84;;;9.79;100.00
20043;BME280;10182;52.896;6.496;2023-05-18T20:16:31;102728.84;;;9.79;100.00
20043;BME280;10182;52.896;6.496;2023-05-18T20:21:33;102726.19;;;9.80;100.00
20043;BME280;10182;52.896;6.496;2023-05-18T20:26:36;102726.13;;;9.83;100.00
20043;BME280;10182;52.896;6.496;2023-05-18T20:31:38;102729.03;;;9.65;100.00
20043;BME280;10182;52.896;6.496;2023-05-18T20:36:40;102732.66;;;9.53;100.00
20043;BME280;10182;52.896;6.496;2023-05-18T20:41:43;102737.06;;;9.56;100.00
20043;BME280;10182;52.896;6.496;2023-05-18T20:46:45;102742.50;;;9.39;100.00
20043;BME280;10182;52.896;6.496;2023-05-18T20:51:47;102751.34;;;9.38;100.00
20043;BME280;10182;52.896;6.496;2023-05-18T20:56:50;102756.75;;;9.24;100.00
20043;BME280;10182;52.896;6.496;2023-05-18T21:01:52;102751.50;;;9.21;100.00
20043;BME280;10182;52.896;6.496;2023-05-18T21:06:53;102749.88;;;9.03;100.00
20043;BME280;10182;52.896;6.496;2023-05-18T21:11:57;102749.94;;;9.00;100.00
20043;BME280;10182;52.896;6.496;2023-05-18T21:16:59;102746.38;;;9.02;100.00
20043;BME280;10182;52.896;6.496;2023-05-18T21:22:00;102754.38;;;8.93;100.00
20043;BME280;10182;52.896;6.496;2023-05-18T21:27:05;102752.53;;;9.01;100.00
20043;BME280;10182;52.896;6.496;2023-05-18T21:32:07;102749.13;;;8.87;100.00
20043;BME280;10182;52.896;6.496;2023-05-18T21:37:09;102760.63;;;8.81;100.00
20043;BME280;10182;52.896;6.496;2023-05-18T21:42:12;102759.78;;;8.76;100.00
20043;BME280;10182;52.896;6.496;2023-05-18T21:47:14;102758.97;;;8.66;100.00
20043;BME280;10182;52.896;6.496;2023-05-18T21:52:15;102767.78;;;8.62;100.00
20043;BME280;10182;52.896;6.496;2023-05-18T21:57:18;102772.22;;;8.60;100.00
20043;BME280;10182;52.896;6.496;2023-05-18T22:02:20;102778.41;;;8.53;100.00
20043;BME280;10182;52.896;6.496;2023-05-18T22:07:22;102772.28;;;8.49;100.00
20043;BME280;10182;52.896;6.496;2023-05-18T22:12:25;102777.56;;;8.41;100.00
20043;BME280;10182;52.896;6.496;2023-05-18T22:17:26;102775.88;;;8.33;100.00
20043;BME280;10182;52.896;6.496;2023-05-18T22:22:28;102775.84;;;8.36;100.00
20043;BME280;10182;52.896;6.496;2023-05-18T22:27:31;102776.78;;;8.22;100.00
20043;BME280;10182;52.896;6.496;2023-05-18T22:32:35;102771.53;;;8.18;100.00
20043;BME280;10182;52.896;6.496;2023-05-18T22:37:37;102774.16;;;8.21;100.00
20043;BME280;10182;52.896;6.496;2023-05-18T22:42:40;102767.13;;;8.10;100.00
20043;BME280;10182;52.896;6.496;2023-05-18T22:47:42;102765.41;;;8.09;100.00
20043;BME280;10182;52.896;6.496;2023-05-18T22:52:44;102769.78;;;8.07;100.00
20043;BME280;10182;52.896;6.496;2023-05-18T22:57:48;102770.69;;;8.03;100.00
20043;BME280;10182;52.896;6.496;2023-05-18T23:02:49;102763.69;;;7.96;100.00
20043;BME280;10182;52.896;6.496;2023-05-18T23:07:52;102775.13;;;7.95;100.00
20043;BME280;10182;52.896;6.496;2023-05-18T23:12:58;102781.28;;;7.91;100.00
20043;BME280;10182;52.896;6.496;2023-05-18T23:18:00;102783.06;;;7.84;100.00
20043;BME280;10182;52.896;6.496;2023-05-18T23:23:02;102783.94;;;7.80;100.00
20043;BME280;10182;52.896;6.496;2023-05-18T23:28:05;102773.44;;;7.75;100.00
20043;BME280;10182;52.896;6.496;2023-05-18T23:33:07;102772.53;;;7.72;100.00
20043;BME280;10182;52.896;6.496;2023-05-18T23:38:09;102772.59;;;7.64;100.00
20043;BME280;10182;52.896;6.496;2023-05-18T23:43:19;102775.22;;;7.55;100.00
20043;BME280;10182;52.896;6.496;2023-05-18T23:48:21;102769.94;;;7.50;100.00
20043;BME280;10182;52.896;6.496;2023-05-18T23:53:24;102769.94;;;7.49;100.00
20043;BME280;10182;52.896;6.496;2023-05-18T23:58:30;102776.13;;;7.51;100.00
